Bow Island Climate, Alberta

Past 24 Hour Conditions

Date / Time
(MST)
Conditions Temp
(°F)
Humidity
(%)
Dew Point
(°F)
Wind
(mph)
Pressure
(inches)
Vis
(mi)
Wind Chill
24 November 2014
18:00 N/A 30 79 25 SSW 7 N/A N/A 23
17:00 N/A 32 79 26 SSW 7 N/A N/A 25
16:00 N/A 33 89 30 S 5 N/A N/A *
15:00 N/A 35 81 30 S 5 N/A N/A *
14:00 N/A 38 71 29 SW 4 N/A N/A *
13:00 N/A 40   67 30 WSW 3 N/A N/A *
12:00 N/A 39 68 29 W 7 N/A N/A *
11:00 N/A 36 71 28 W 8 N/A N/A *
10:00 N/A 32 79 26 W 6 N/A N/A 26
9:00 N/A 30 79 24 W 6 N/A N/A 24
8:00 N/A 31 79 25 WNW 10 N/A N/A 22
7:00 N/A 30 78 24 WNW 9 N/A N/A 22
6:00 N/A 28   81 23 W 10 N/A N/A 19
5:00 N/A 30 80 24 WNW 4 N/A N/A 26
4:00 N/A 29 82 24 WNW 10 N/A N/A 20
3:00 N/A 28   83 24 WNW 12 N/A N/A 18
2:00 N/A 29 84 25 WNW 12 N/A N/A 19
1:00 N/A 30 76 24 NW 16 N/A N/A 19
00:00 N/A 32 74 25 NW 17 N/A N/A *
23 November 2014
23:00 N/A 32 77 26 WNW 14 N/A N/A *
22:00 N/A 32 82 27 WNW 11 N/A N/A 23
21:00 N/A 30 81 25 WSW 8 N/A N/A 23
20:00 N/A 31 78 25 SW 5 N/A N/A 26
19:00 N/A 31 80 26 SSW 7 N/A N/A 25
18:00 N/A 32 79 26 SSW 9 N/A N/A 24
N/A Not available
↑ Highest temperature
↓ Lowest temperature
* Value not significant.

If you require additional historical weather information, please visit Climate Data Online.

Date modified: